Time;durP1;ratioP1;P1;durP2;ratioP2;P2;SDS_P1;SDS_P2;PMS_P1;PMS_P2;Temp;Humidity;BMP_temperature;BMP_pressure;BME280_temperature;BME280_humidity;BME280_pressure;Samples;Min_cycle;Max_cycle;Signal;HPM_P1;HPM_P2
2024/01/30 00:01:48;;;;;;;52.15;27.77;;;;;;;;;;7390209;19;20052;-79
2024/01/30 00:04:13;;;;;;;50.28;27.50;;;;;;;;;;7363176;19;20017;-77
2024/01/30 00:06:38;;;;;;;47.53;26.25;;;;;;;;;;7364185;19;20010;-77
2024/01/30 00:09:05;;;;;;;45.22;25.17;;;;;;;;;;7361234;19;20052;-77
2024/01/30 00:11:30;;;;;;;46.70;26.13;;;;;;;;;;7365004;19;20024;-77
2024/01/30 00:13:59;;;;;;;50.90;26.75;;;;;;;;;;7385062;19;20003;-77
2024/01/30 00:16:25;;;;;;;52.50;27.00;;;;;;;;;;7363737;19;20460;-77
2024/01/30 00:18:54;;;;;;;52.33;29.08;;;;;;;;;;7362786;19;20018;-77
2024/01/30 00:21:20;;;;;;;54.60;28.42;;;;;;;;;;7365505;19;19998;-77
2024/01/30 00:23:46;;;;;;;48.67;27.67;;;;;;;;;;7364130;19;20010;-77
2024/01/30 00:26:11;;;;;;;53.30;27.83;;;;;;;;;;7387845;19;19998;-77
2024/01/30 00:28:43;;;;;;;53.22;27.77;;;;;;;;;;7376780;19;20028;-78
2024/01/30 00:31:12;;;;;;;52.70;28.42;;;;;;;;;;7384592;19;20049;-78
2024/01/30 00:33:39;;;;;;;56.47;29.25;;;;;;;;;;7374641;19;20033;-78
2024/01/30 00:36:06;;;;;;;57.85;30.27;;;;;;;;;;7372081;19;20006;-78
2024/01/30 00:38:31;;;;;;;55.10;28.65;;;;;;;;;;7374239;19;20018;-78
2024/01/30 00:40:57;;;;;;;52.33;26.98;;;;;;;;;;7398920;19;20006;-78
2024/01/30 00:43:24;;;;;;;52.70;27.60;;;;;;;;;;7391777;19;20007;-78
2024/01/30 00:45:51;;;;;;;52.88;28.38;;;;;;;;;;7393612;19;20010;-78
2024/01/30 00:48:17;;;;;;;58.63;28.92;;;;;;;;;;7390090;19;20018;-77
2024/01/30 00:50:43;;;;;;;53.85;28.75;;;;;;;;;;7374990;19;20010;-78
2024/01/30 00:53:08;;;;;;;53.03;27.80;;;;;;;;;;7392167;19;20010;-78
2024/01/30 00:55:33;;;;;;;53.05;28.50;;;;;;;;;;7375550;19;20006;-78
2024/01/30 00:57:58;;;;;;;57.20;28.60;;;;;;;;;;7386066;19;20018;-78
2024/01/30 01:00:28;;;;;;;49.13;27.77;;;;;;;;;;7383084;19;20002;-78
2024/01/30 01:02:57;;;;;;;55.72;27.98;;;;;;;;;;7373245;19;20006;-79
2024/01/30 01:05:22;;;;;;;57.17;29.00;;;;;;;;;;7377191;19;20010;-79
2024/01/30 01:07:48;;;;;;;51.80;28.10;;;;;;;;;;7401061;19;20009;-78
2024/01/30 01:10:14;;;;;;;66.10;29.23;;;;;;;;;;7376054;19;20062;-78
2024/01/30 01:12:39;;;;;;;62.28;29.90;;;;;;;;;;7379394;19;20014;-78
2024/01/30 01:15:09;;;;;;;48.20;27.45;;;;;;;;;;7379135;19;20054;-78
2024/01/30 01:17:34;;;;;;;52.42;28.35;;;;;;;;;;7384493;19;20099;-79
2024/01/30 01:20:00;;;;;;;59.22;29.58;;;;;;;;;;7405787;19;20374;-78
2024/01/30 01:22:25;;;;;;;54.40;28.90;;;;;;;;;;7389079;19;20017;-78
2024/01/30 01:24:50;;;;;;;60.25;28.80;;;;;;;;;;7386029;19;20017;-78
2024/01/30 01:27:16;;;;;;;61.58;30.00;;;;;;;;;;7387683;19;20535;-79
2024/01/30 01:29:41;;;;;;;60.03;29.67;;;;;;;;;;7396285;19;20002;-79
2024/01/30 01:32:06;;;;;;;54.58;28.17;;;;;;;;;;7425933;19;20056;-78
2024/01/30 01:34:32;;;;;;;56.03;30.00;;;;;;;;;;7394684;19;20010;-79
2024/01/30 01:36:57;;;;;;;60.13;31.27;;;;;;;;;;7381742;19;20029;-79
2024/01/30 01:39:25;;;;;;;74.78;33.78;;;;;;;;;;7380999;19;20006;-79
2024/01/30 01:41:51;;;;;;;67.85;32.75;;;;;;;;;;7379627;19;20013;-78
2024/01/30 01:44:18;;;;;;;74.07;32.90;;;;;;;;;;7400932;19;20043;-78
2024/01/30 01:46:43;;;;;;;65.15;31.08;;;;;;;;;;7381289;19;20010;-79
2024/01/30 01:49:09;;;;;;;71.45;33.60;;;;;;;;;;7378641;19;20073;-79
2024/01/30 01:51:36;;;;;;;74.60;32.67;;;;;;;;;;7381688;19;20016;-79
2024/01/30 01:54:03;;;;;;;73.75;32.40;;;;;;;;;;7380509;19;20010;-79
2024/01/30 01:56:31;;;;;;;69.25;32.80;;;;;;;;;;7383948;19;20041;-79
2024/01/30 01:59:00;;;;;;;72.22;33.95;;;;;;;;;;7400858;19;20026;-79
2024/01/30 02:01:27;;;;;;;66.43;33.00;;;;;;;;;;7375357;19;20006;-79
2024/01/30 02:03:52;;;;;;;87.53;36.95;;;;;;;;;;7374721;19;20006;-79
2024/01/30 02:06:18;;;;;;;77.85;34.67;;;;;;;;;;7385872;19;20074;-78
2024/01/30 02:08:44;;;;;;;64.07;31.25;;;;;;;;;;7409021;19;19995;-79
2024/01/30 02:11:10;;;;;;;71.75;33.25;;;;;;;;;;7431530;19;19991;-78
2024/01/30 02:13:35;;;;;;;60.85;31.33;;;;;;;;;;7395371;19;20011;-78
2024/01/30 02:16:01;;;;;;;66.45;32.45;;;;;;;;;;7380898;19;20365;-78
2024/01/30 02:18:27;;;;;;;63.20;31.95;;;;;;;;;;7379318;19;20093;-78
2024/01/30 02:20:55;;;;;;;67.15;31.70;;;;;;;;;;7383287;19;20006;-79
2024/01/30 02:23:22;;;;;;;55.75;29.75;;;;;;;;;;7380946;19;20467;-79
2024/01/30 02:25:47;;;;;;;55.63;29.10;;;;;;;;;;7401790;19;20003;-78
2024/01/30 02:28:13;;;;;;;57.88;28.90;;;;;;;;;;7379043;19;20009;-79
2024/01/30 02:30:39;;;;;;;56.40;29.98;;;;;;;;;;7383948;19;20002;-78
2024/01/30 02:33:05;;;;;;;58.83;29.58;;;;;;;;;;7384948;19;20066;-79
2024/01/30 02:35:30;;;;;;;63.03;29.35;;;;;;;;;;7403140;19;20010;-79
2024/01/30 02:37:56;;;;;;;65.68;28.48;;;;;;;;;;7422902;19;20016;-78
2024/01/30 02:40:21;;;;;;;60.13;28.40;;;;;;;;;;7388261;19;20349;-79
2024/01/30 02:42:47;;;;;;;53.33;28.52;;;;;;;;;;7377838;19;20445;-79
2024/01/30 02:45:13;;;;;;;52.08;26.65;;;;;;;;;;7377705;19;20025;-78
2024/01/30 02:47:39;;;;;;;48.60;27.10;;;;;;;;;;7377091;19;20030;-78
2024/01/30 02:50:05;;;;;;;54.40;27.17;;;;;;;;;;7400153;19;20003;-78
2024/01/30 02:52:30;;;;;;;57.22;27.15;;;;;;;;;;7378403;19;20010;-78
2024/01/30 02:54:55;;;;;;;53.25;26.45;;;;;;;;;;7378341;19;20006;-79
2024/01/30 02:57:21;;;;;;;50.47;27.58;;;;;;;;;;7378141;19;20529;-78
2024/01/30 02:59:46;;;;;;;53.90;26.67;;;;;;;;;;7376866;19;20014;-78
2024/01/30 03:02:11;;;;;;;48.47;26.98;;;;;;;;;;7401242;19;19999;-78
2024/01/30 03:04:37;;;;;;;46.63;25.67;;;;;;;;;;7381701;19;20006;-78
2024/01/30 03:07:03;;;;;;;55.88;28.02;;;;;;;;;;7379002;19;20025;-78
2024/01/30 03:09:29;;;;;;;52.42;27.05;;;;;;;;;;7379455;19;20625;-78
2024/01/30 03:11:55;;;;;;;50.17;26.48;;;;;;;;;;7378176;19;20006;-78
2024/01/30 03:14:21;;;;;;;54.70;26.02;;;;;;;;;;7374760;19;20021;-78
2024/01/30 03:16:46;;;;;;;50.90;27.50;;;;;;;;;;7396466;19;20006;-79
2024/01/30 03:19:11;;;;;;;57.45;27.08;;;;;;;;;;7372786;19;20019;-78
2024/01/30 03:21:37;;;;;;;55.80;29.38;;;;;;;;;;7375304;19;20006;-78
2024/01/30 03:24:02;;;;;;;65.70;31.27;;;;;;;;;;7374259;19;20388;-78
2024/01/30 03:26:27;;;;;;;70.85;31.92;;;;;;;;;;7371450;19;20022;-78
2024/01/30 03:28:53;;;;;;;69.07;31.42;;;;;;;;;;7396588;19;20037;-78
2024/01/30 03:31:18;;;;;;;64.70;31.55;;;;;;;;;;7374831;19;20020;-78
2024/01/30 03:33:43;;;;;;;65.28;30.90;;;;;;;;;;7376274;19;20008;-79
2024/01/30 03:36:09;;;;;;;68.35;29.60;;;;;;;;;;7393876;19;20010;-78
2024/01/30 03:38:34;;;;;;;70.22;29.45;;;;;;;;;;7400037;19;20023;-78
2024/01/30 03:41:00;;;;;;;67.60;29.73;;;;;;;;;;7426446;19;19995;-78
2024/01/30 03:43:26;;;;;;;61.55;29.98;;;;;;;;;;7402178;19;20050;-78
2024/01/30 03:45:51;;;;;;;54.72;26.55;;;;;;;;;;7399753;19;20002;-78
2024/01/30 03:48:16;;;;;;;54.80;27.80;;;;;;;;;;7398901;19;20011;-78
2024/01/30 03:50:42;;;;;;;58.05;26.70;;;;;;;;;;7390873;19;20006;-78
2024/01/30 03:53:07;;;;;;;53.28;27.20;;;;;;;;;;7401229;19;20029;-79
2024/01/30 03:55:32;;;;;;;54.30;27.95;;;;;;;;;;7380537;19;20018;-79
2024/01/30 03:57:58;;;;;;;55.58;28.05;;;;;;;;;;7379790;19;20013;-78
2024/01/30 04:00:23;;;;;;;55.75;28.65;;;;;;;;;;7392656;19;20019;-78
2024/01/30 04:02:50;;;;;;;55.47;28.65;;;;;;;;;;7389169;19;20296;-78
2024/01/30 04:05:16;;;;;;;56.92;28.35;;;;;;;;;;7400542;19;20010;-79
2024/01/30 04:07:41;;;;;;;71.20;29.20;;;;;;;;;;7378696;19;20034;-78
2024/01/30 04:10:07;;;;;;;63.13;29.63;;;;;;;;;;7378055;19;20014;-78
2024/01/30 04:12:32;;;;;;;56.78;28.80;;;;;;;;;;7376386;19;20100;-79
2024/01/30 04:14:58;;;;;;;52.58;27.25;;;;;;;;;;7374605;19;20014;-78
2024/01/30 04:17:23;;;;;;;50.08;27.27;;;;;;;;;;7378639;19;20020;-78
2024/01/30 04:19:48;;;;;;;51.83;24.67;;;;;;;;;;7398225;19;20002;-78
2024/01/30 04:22:14;;;;;;;53.40;26.20;;;;;;;;;;7377347;19;20007;-78
2024/01/30 04:24:39;;;;;;;66.60;30.65;;;;;;;;;;7377163;19;20018;-78
2024/01/30 04:27:04;;;;;;;66.90;30.65;;;;;;;;;;7379472;19;20055;-78
2024/01/30 04:29:30;;;;;;;69.93;32.60;;;;;;;;;;7381041;19;20031;-78
2024/01/30 04:31:55;;;;;;;80.32;33.25;;;;;;;;;;7412849;19;19999;-78
2024/01/30 04:34:20;;;;;;;90.47;32.65;;;;;;;;;;7393405;19;20007;-78
2024/01/30 04:36:46;;;;;;;98.57;43.13;;;;;;;;;;7396362;19;20009;-78
2024/01/30 04:39:12;;;;;;;132.55;60.33;;;;;;;;;;7395795;19;20007;-79
2024/01/30 04:41:38;;;;;;;63.58;32.90;;;;;;;;;;7386315;19;20445;-78
2024/01/30 04:44:03;;;;;;;57.92;29.23;;;;;;;;;;7404809;19;20017;-78
2024/01/30 04:46:28;;;;;;;65.00;28.45;;;;;;;;;;7383620;19;20006;-78
2024/01/30 04:48:54;;;;;;;64.60;28.85;;;;;;;;;;7385327;19;20359;-78
2024/01/30 04:51:19;;;;;;;59.60;27.40;;;;;;;;;;7400486;19;20017;-78
2024/01/30 04:53:44;;;;;;;51.22;26.38;;;;;;;;;;7405056;19;20002;-79
2024/01/30 04:56:10;;;;;;;53.80;26.10;;;;;;;;;;7426017;19;20020;-78
2024/01/30 04:58:35;;;;;;;64.13;28.15;;;;;;;;;;7399858;19;20087;-78
2024/01/30 05:01:02;;;;;;;54.92;26.48;;;;;;;;;;7379471;19;20006;-79
2024/01/30 05:03:27;;;;;;;54.45;27.35;;;;;;;;;;7384575;19;20018;-79
2024/01/30 05:05:52;;;;;;;64.68;27.38;;;;;;;;;;7384975;19;20002;-79
2024/01/30 05:08:18;;;;;;;59.83;28.42;;;;;;;;;;7399169;19;20011;-77
2024/01/30 05:10:43;;;;;;;54.03;27.45;;;;;;;;;;7387835;19;20010;-79
2024/01/30 05:13:08;;;;;;;66.55;28.02;;;;;;;;;;7398035;19;20010;-79
2024/01/30 05:15:34;;;;;;;54.13;27.92;;;;;;;;;;7392142;19;20039;-80
2024/01/30 05:18:00;;;;;;;57.88;27.90;;;;;;;;;;7383835;19;20619;-79
2024/01/30 05:20:27;;;;;;;57.88;26.92;;;;;;;;;;7381454;19;20062;-79
2024/01/30 05:22:53;;;;;;;57.95;27.38;;;;;;;;;;7404282;19;19999;-79
2024/01/30 05:25:18;;;;;;;60.67;29.63;;;;;;;;;;7388381;19;20023;-79
2024/01/30 05:27:44;;;;;;;72.07;31.17;;;;;;;;;;7404016;19;20103;-79
2024/01/30 05:30:10;;;;;;;69.65;31.23;;;;;;;;;;7408372;19;20006;-79
2024/01/30 05:32:35;;;;;;;82.85;33.40;;;;;;;;;;7412500;19;20006;-80
2024/01/30 05:35:00;;;;;;;84.55;32.97;;;;;;;;;;7427952;19;20015;-79
2024/01/30 05:37:26;;;;;;;101.22;33.95;;;;;;;;;;7392980;19;20018;-80
2024/01/30 05:39:51;;;;;;;87.30;32.78;;;;;;;;;;7387844;19;20010;-80
2024/01/30 05:42:16;;;;;;;78.88;33.50;;;;;;;;;;7385981;19;20059;-79
2024/01/30 05:44:42;;;;;;;77.50;31.35;;;;;;;;;;7385413;19;20023;-80
2024/01/30 05:47:07;;;;;;;82.22;33.53;;;;;;;;;;7402995;19;20014;-79
2024/01/30 05:49:33;;;;;;;93.15;34.40;;;;;;;;;;7386784;19;20014;-79
2024/01/30 05:51:58;;;;;;;87.70;32.25;;;;;;;;;;7385057;19;20014;-79
2024/01/30 05:54:23;;;;;;;136.32;36.67;;;;;;;;;;7377815;19;20005;-79
2024/01/30 05:56:50;;;;;;;121.07;42.13;;;;;;;;;;7377830;19;20010;-79
2024/01/30 05:59:15;;;;;;;110.78;37.80;;;;;;;;;;7399235;19;20014;-79
2024/01/30 06:01:48;;;;;;;83.68;33.80;;;;;;;;;;7378571;19;20007;-79
2024/01/30 06:04:13;;;;;;;86.55;32.78;;;;;;;;;;7371538;19;20536;-79
2024/01/30 06:06:38;;;;;;;84.32;34.35;;;;;;;;;;7380755;19;20006;-79
2024/01/30 06:09:04;;;;;;;101.10;35.65;;;;;;;;;;7380546;19;20018;-79
2024/01/30 06:11:29;;;;;;;101.35;35.15;;;;;;;;;;7377194;19;20026;-79
2024/01/30 06:13:56;;;;;;;82.05;37.13;;;;;;;;;;7399319;19;19998;-79
2024/01/30 06:16:22;;;;;;;87.47;33.05;;;;;;;;;;7377202;19;20006;-79
2024/01/30 06:18:48;;;;;;;77.00;32.80;;;;;;;;;;7374098;19;20002;-79
2024/01/30 06:21:13;;;;;;;81.05;35.60;;;;;;;;;;7365694;19;20460;-77
2024/01/30 06:23:39;;;;;;;96.70;35.22;;;;;;;;;;7364846;19;19996;-77
2024/01/30 06:26:06;;;;;;;93.13;34.40;;;;;;;;;;7387126;19;20002;-77
2024/01/30 06:28:31;;;;;;;82.88;33.50;;;;;;;;;;7372583;19;20007;-78
2024/01/30 06:30:56;;;;;;;81.55;33.80;;;;;;;;;;7372917;19;20034;-78
2024/01/30 06:33:22;;;;;;;152.95;37.95;;;;;;;;;;7372940;19;20389;-78
2024/01/30 06:35:47;;;;;;;78.28;33.30;;;;;;;;;;7374996;19;20401;-78
2024/01/30 06:38:15;;;;;;;79.30;34.97;;;;;;;;;;7388822;19;20078;-75
2024/01/30 06:40:40;;;;;;;139.43;37.13;;;;;;;;;;7372497;19;20462;-78
2024/01/30 06:43:07;;;;;;;180.10;39.42;;;;;;;;;;7375434;19;20003;-79
2024/01/30 06:45:34;;;;;;;211.38;40.38;;;;;;;;;;7369133;19;20002;-76
2024/01/30 06:48:00;;;;;;;162.95;38.55;;;;;;;;;;7366289;19;20090;-76
2024/01/30 06:50:25;;;;;;;133.98;33.65;;;;;;;;;;7366517;19;20054;-76
2024/01/30 06:52:51;;;;;;;118.25;36.72;;;;;;;;;;7387934;19;20065;-77
2024/01/30 06:55:17;;;;;;;168.55;38.13;;;;;;;;;;7354995;19;20012;-77
2024/01/30 06:57:43;;;;;;;158.05;38.75;;;;;;;;;;7367260;19;20006;-77
2024/01/30 07:00:09;;;;;;;152.00;36.03;;;;;;;;;;7368047;19;20020;-78
2024/01/30 07:02:34;;;;;;;80.82;31.33;;;;;;;;;;7371225;19;20013;-79
2024/01/30 07:04:59;;;;;;;150.38;36.70;;;;;;;;;;7385312;19;20002;-76
2024/01/30 07:07:24;;;;;;;228.85;38.83;;;;;;;;;;7365070;19;20065;-76
2024/01/30 07:09:55;;;;;;;119.32;34.55;;;;;;;;;;7370045;19;20039;-77
2024/01/30 07:12:21;;;;;;;72.65;32.70;;;;;;;;;;7368030;19;20087;-77
2024/01/30 07:14:46;;;;;;;305.88;40.38;;;;;;;;;;7371135;19;20039;-78
2024/01/30 07:17:11;;;;;;;80.43;33.40;;;;;;;;;;7399418;19;20025;-77
2024/01/30 07:19:36;;;;;;;230.90;41.28;;;;;;;;;;7366959;19;20002;-77
2024/01/30 07:22:02;;;;;;;99.90;35.33;;;;;;;;;;7380158;19;19994;-78
2024/01/30 07:24:27;;;;;;;208.65;39.42;;;;;;;;;;7370550;19;20527;-78
2024/01/30 07:26:52;;;;;;;102.10;35.70;;;;;;;;;;7367659;19;20002;-76
2024/01/30 07:29:18;;;;;;;103.75;37.17;;;;;;;;;;7387350;19;20062;-80
2024/01/30 07:31:43;;;;;;;97.05;37.22;;;;;;;;;;7383332;19;20006;-77
2024/01/30 07:34:09;;;;;;;81.70;37.50;;;;;;;;;;7374152;19;20028;-79
2024/01/30 07:36:34;;;;;;;120.10;40.60;;;;;;;;;;7376195;19;20005;-79
2024/01/30 07:38:59;;;;;;;78.18;33.50;;;;;;;;;;7374915;19;20013;-78
2024/01/30 07:41:25;;;;;;;81.78;35.35;;;;;;;;;;7375866;19;20023;-78
2024/01/30 07:43:50;;;;;;;114.65;36.50;;;;;;;;;;7396167;19;20007;-78
2024/01/30 07:46:16;;;;;;;60.20;32.38;;;;;;;;;;7375996;19;20017;-78
2024/01/30 07:48:41;;;;;;;74.97;34.05;;;;;;;;;;7373714;19;20405;-77
2024/01/30 07:51:06;;;;;;;71.45;34.72;;;;;;;;;;7387099;19;20010;-80
2024/01/30 07:53:32;;;;;;;63.72;32.65;;;;;;;;;;7376862;19;20007;-80
2024/01/30 07:55:57;;;;;;;81.40;36.42;;;;;;;;;;7397810;19;19998;-79
2024/01/30 07:58:23;;;;;;;69.90;33.90;;;;;;;;;;7389560;19;20005;-78
2024/01/30 08:00:49;;;;;;;75.40;39.03;;;;;;;;;;7381298;19;20001;-78
2024/01/30 08:03:16;;;;;;;72.57;37.17;;;;;;;;;;7369626;19;20424;-77
2024/01/30 08:05:41;;;;;;;81.60;37.65;;;;;;;;;;7367744;19;20051;-80
2024/01/30 08:08:07;;;;;;;71.97;37.78;;;;;;;;;;7387386;19;20007;-76
2024/01/30 08:10:32;;;;;;;69.95;37.40;;;;;;;;;;7375159;19;20010;-78
2024/01/30 08:12:58;;;;;;;78.13;36.92;;;;;;;;;;7372300;19;20502;-77
2024/01/30 08:15:23;;;;;;;90.97;42.45;;;;;;;;;;7389438;19;20010;-78
2024/01/30 08:17:48;;;;;;;80.03;41.13;;;;;;;;;;7374841;19;21001;-79
2024/01/30 08:20:14;;;;;;;79.20;39.63;;;;;;;;;;7396326;19;20559;-77
2024/01/30 08:22:42;;;;;;;67.45;36.80;;;;;;;;;;7372620;19;20006;-76
2024/01/30 08:25:09;;;;;;;91.63;45.70;;;;;;;;;;7378482;19;20007;-77
2024/01/30 08:27:38;;;;;;;99.13;48.75;;;;;;;;;;7376574;19;20736;-78
2024/01/30 08:30:06;;;;;;;104.13;50.78;;;;;;;;;;7371738;19;20046;-78
2024/01/30 08:32:31;;;;;;;102.18;55.70;;;;;;;;;;7382443;19;20003;-80
2024/01/30 08:34:56;;;;;;;102.03;57.47;;;;;;;;;;7396852;19;20017;-78
2024/01/30 08:37:22;;;;;;;96.57;56.05;;;;;;;;;;7380303;19;20081;-79
2024/01/30 08:39:47;;;;;;;98.65;54.47;;;;;;;;;;7377058;19;20023;-78
2024/01/30 08:42:12;;;;;;;86.90;49.53;;;;;;;;;;7378441;19;20030;-79
2024/01/30 08:44:38;;;;;;;83.80;48.38;;;;;;;;;;7370533;19;20641;-77
2024/01/30 08:47:04;;;;;;;76.68;37.42;;;;;;;;;;7402203;19;20013;-77
2024/01/30 08:49:29;;;;;;;65.25;34.58;;;;;;;;;;7382463;19;20002;-79
2024/01/30 08:51:54;;;;;;;66.28;33.88;;;;;;;;;;7386253;19;20466;-77
2024/01/30 08:54:20;;;;;;;70.82;37.75;;;;;;;;;;7384956;19;20011;-79
2024/01/30 08:56:45;;;;;;;69.55;37.85;;;;;;;;;;7382301;19;20010;-79
2024/01/30 08:59:11;;;;;;;63.35;35.85;;;;;;;;;;7401947;19;20009;-78
2024/01/30 09:01:36;;;;;;;63.20;34.08;;;;;;;;;;7377152;19;20009;-78
2024/01/30 09:04:01;;;;;;;63.40;36.47;;;;;;;;;;7373987;19;20011;-80
2024/01/30 09:06:28;;;;;;;77.60;40.50;;;;;;;;;;7375433;19;20594;-77
2024/01/30 09:08:53;;;;;;;67.63;38.13;;;;;;;;;;7391011;19;20002;-78
2024/01/30 09:11:19;;;;;;;71.40;36.42;;;;;;;;;;7423479;19;20002;-78
2024/01/30 09:13:44;;;;;;;63.42;34.28;;;;;;;;;;7418688;19;20010;-80
2024/01/30 09:16:10;;;;;;;60.30;33.92;;;;;;;;;;7402393;19;20014;-80
2024/01/30 09:18:35;;;;;;;55.83;33.83;;;;;;;;;;7377340;19;19998;-78
2024/01/30 09:21:00;;;;;;;65.00;35.75;;;;;;;;;;7381827;19;20006;-79
2024/01/30 09:23:27;;;;;;;60.72;32.35;;;;;;;;;;7386872;19;19998;-79
2024/01/30 09:25:53;;;;;;;50.90;29.48;;;;;;;;;;7403939;19;19994;-77
2024/01/30 09:28:18;;;;;;;47.85;30.83;;;;;;;;;;7382970;19;20003;-79
2024/01/30 09:30:43;;;;;;;50.78;31.02;;;;;;;;;;7377434;19;20578;-79
2024/01/30 09:33:09;;;;;;;47.13;29.38;;;;;;;;;;7378402;19;20018;-79
2024/01/30 09:35:36;;;;;;;48.60;28.60;;;;;;;;;;7381463;19;20375;-78
2024/01/30 09:38:01;;;;;;;44.58;28.25;;;;;;;;;;7395848;19;20010;-79
2024/01/30 09:40:27;;;;;;;48.20;29.17;;;;;;;;;;7374329;19;20480;-82
2024/01/30 09:42:53;;;;;;;47.92;30.23;;;;;;;;;;7385019;19;20003;-78
2024/01/30 09:45:23;;;;;;;49.40;29.73;;;;;;;;;;7373471;19;20479;-78
2024/01/30 09:47:49;;;;;;;52.35;31.05;;;;;;;;;;7374144;19;20007;-78
2024/01/30 09:50:15;;;;;;;52.15;33.97;;;;;;;;;;7398038;19;20001;-78
2024/01/30 09:52:45;;;;;;;52.88;33.30;;;;;;;;;;7374497;19;19999;-80
2024/01/30 09:55:10;;;;;;;48.70;31.08;;;;;;;;;;7377428;19;20002;-79
2024/01/30 09:57:36;;;;;;;48.00;31.25;;;;;;;;;;7372778;19;20002;-78
2024/01/30 10:00:02;;;;;;;56.90;32.95;;;;;;;;;;7377134;19;19998;-78
2024/01/30 10:02:28;;;;;;;48.33;30.60;;;;;;;;;;7370419;19;20002;-77
2024/01/30 10:04:53;;;;;;;48.65;29.70;;;;;;;;;;7401375;19;19995;-79
2024/01/30 10:07:19;;;;;;;51.15;30.52;;;;;;;;;;7384352;19;20014;-81
2024/01/30 10:09:45;;;;;;;48.97;29.98;;;;;;;;;;7391762;19;20046;-81
2024/01/30 10:12:11;;;;;;;50.75;31.00;;;;;;;;;;7408837;19;20006;-83
2024/01/30 10:14:40;;;;;;;45.85;29.02;;;;;;;;;;7404537;19;20005;-80
2024/01/30 10:17:08;;;;;;;47.17;27.38;;;;;;;;;;7420953;19;20005;-79
2024/01/30 10:19:33;;;;;;;42.13;27.75;;;;;;;;;;7379838;19;20003;-80
2024/01/30 10:22:00;;;;;;;46.22;27.17;;;;;;;;;;7380134;19;19998;-78
2024/01/30 10:24:26;;;;;;;47.00;29.90;;;;;;;;;;7373042;19;20340;-80
2024/01/30 10:26:52;;;;;;;54.72;29.60;;;;;;;;;;7374572;19;20012;-78
2024/01/30 10:29:18;;;;;;;51.67;36.72;;;;;;;;;;7397519;19;20006;-77
2024/01/30 10:31:43;;;;;;;53.28;37.90;;;;;;;;;;7372990;19;20421;-80
2024/01/30 10:34:08;;;;;;;37.95;26.88;;;;;;;;;;7374558;19;20045;-77
2024/01/30 10:36:41;;;;;;;38.20;25.05;;;;;;;;;;7374260;19;20139;-80
2024/01/30 10:39:06;;;;;;;38.13;26.52;;;;;;;;;;7378357;19;20039;-79
2024/01/30 10:41:39;;;;;;;36.35;23.95;;;;;;;;;;7381016;19;20002;-79
2024/01/30 10:44:10;;;;;;;39.47;23.25;;;;;;;;;;7399557;19;20045;-79
2024/01/30 10:46:38;;;;;;;32.50;21.60;;;;;;;;;;7383291;19;20041;-81
2024/01/30 10:49:04;;;;;;;34.28;23.45;;;;;;;;;;7390745;19;20701;-79
2024/01/30 10:51:31;;;;;;;36.92;25.08;;;;;;;;;;7388156;19;20050;-77
2024/01/30 10:53:57;;;;;;;36.28;23.98;;;;;;;;;;7379717;19;20069;-77
2024/01/30 10:56:24;;;;;;;34.38;23.52;;;;;;;;;;7391542;19;20330;-77
2024/01/30 10:58:51;;;;;;;37.75;23.73;;;;;;;;;;7397443;19;20040;-77
2024/01/30 11:01:19;;;;;;;36.22;22.58;;;;;;;;;;7377953;19;21001;-82
2024/01/30 11:03:45;;;;;;;33.28;22.83;;;;;;;;;;7374611;19;20022;-80
2024/01/30 11:06:13;;;;;;;30.75;20.85;;;;;;;;;;7376317;19;20010;-79
2024/01/30 11:08:39;;;;;;;31.10;20.30;;;;;;;;;;7373347;19;20000;-80
2024/01/30 11:11:09;;;;;;;26.88;18.05;;;;;;;;;;7395105;19;20605;-79
2024/01/30 11:13:35;;;;;;;27.90;19.38;;;;;;;;;;7382521;19;20013;-79
2024/01/30 11:16:07;;;;;;;27.48;19.88;;;;;;;;;;7374602;19;20011;-78
2024/01/30 11:18:35;;;;;;;27.58;18.70;;;;;;;;;;7375537;19;20003;-82
2024/01/30 11:21:01;;;;;;;26.73;18.95;;;;;;;;;;7371258;19;20014;-78
2024/01/30 11:23:28;;;;;;;24.58;18.40;;;;;;;;;;7371477;19;20007;-79
2024/01/30 11:25:54;;;;;;;25.98;19.13;;;;;;;;;;7394004;19;20022;-79
2024/01/30 11:28:21;;;;;;;27.58;20.00;;;;;;;;;;7371040;19;20369;-79
2024/01/30 11:30:50;;;;;;;30.35;21.25;;;;;;;;;;7370351;19;20011;-78
2024/01/30 11:33:29;;;;;;;28.20;20.30;;;;;;;;;;7372027;19;20057;-79
2024/01/30 11:35:57;;;;;;;30.65;20.70;;;;;;;;;;7373258;19;20007;-80
2024/01/30 11:38:24;;;;;;;27.92;20.48;;;;;;;;;;7374456;19;20006;-79
2024/01/30 11:40:51;;;;;;;29.33;19.60;;;;;;;;;;7393703;19;20492;-79
2024/01/30 11:43:17;;;;;;;32.17;20.80;;;;;;;;;;7369984;19;20002;-79
2024/01/30 11:45:44;;;;;;;26.88;19.55;;;;;;;;;;7374479;19;20079;-78
2024/01/30 11:48:12;;;;;;;27.77;20.00;;;;;;;;;;7377908;19;20520;-80
2024/01/30 11:50:38;;;;;;;29.27;18.95;;;;;;;;;;7388675;19;20005;-81
2024/01/30 11:53:04;;;;;;;26.73;19.35;;;;;;;;;;7411244;19;20010;-81
2024/01/30 11:55:30;;;;;;;26.15;19.15;;;;;;;;;;7390515;19;20017;-79
2024/01/30 11:57:59;;;;;;;27.85;19.00;;;;;;;;;;7391662;19;20021;-81
2024/01/30 12:00:25;;;;;;;27.23;19.02;;;;;;;;;;7373955;19;21732;-78
2024/01/30 12:02:55;;;;;;;23.95;18.88;;;;;;;;;;7376153;19;20002;-79
2024/01/30 12:05:21;;;;;;;27.98;18.48;;;;;;;;;;7378869;19;20040;-79
2024/01/30 12:07:47;;;;;;;26.00;19.20;;;;;;;;;;7393508;19;20074;-78
2024/01/30 12:10:17;;;;;;;27.10;18.85;;;;;;;;;;7373581;19;20019;-79
2024/01/30 12:12:45;;;;;;;28.75;18.77;;;;;;;;;;7377309;19;20018;-81
2024/01/30 12:15:11;;;;;;;28.08;19.23;;;;;;;;;;7385997;19;19987;-78
2024/01/30 12:17:37;;;;;;;25.30;19.30;;;;;;;;;;7383554;19;20042;-80
2024/01/30 12:20:08;;;;;;;25.90;18.73;;;;;;;;;;7399058;19;20011;-78
2024/01/30 12:22:40;;;;;;;28.98;18.50;;;;;;;;;;7372367;19;20019;-79
2024/01/30 12:25:08;;;;;;;30.67;18.48;;;;;;;;;;7375418;19;20020;-79
2024/01/30 12:27:34;;;;;;;31.17;18.00;;;;;;;;;;7379016;19;20006;-80
2024/01/30 12:29:59;;;;;;;31.50;19.15;;;;;;;;;;7371454;19;20018;-81
2024/01/30 12:32:25;;;;;;;28.23;18.42;;;;;;;;;;7374237;19;20029;-77
2024/01/30 12:34:50;;;;;;;28.33;18.63;;;;;;;;;;7386431;19;20007;-75
2024/01/30 12:37:22;;;;;;;34.58;19.58;;;;;;;;;;7361842;19;20566;-75
2024/01/30 12:39:48;;;;;;;31.15;18.90;;;;;;;;;;7355166;19;20495;-75
2024/01/30 12:42:13;;;;;;;39.25;19.65;;;;;;;;;;7362448;19;20014;-76
2024/01/30 12:44:39;;;;;;;29.63;18.55;;;;;;;;;;7358501;19;20004;-74
2024/01/30 12:47:04;;;;;;;32.13;18.33;;;;;;;;;;7402426;19;20010;-79
2024/01/30 12:49:30;;;;;;;37.38;19.13;;;;;;;;;;7379197;19;20073;-81
2024/01/30 12:51:56;;;;;;;30.40;18.63;;;;;;;;;;7369796;19;20025;-80
2024/01/30 12:54:23;;;;;;;29.42;17.60;;;;;;;;;;7369297;19;20448;-79
2024/01/30 12:56:48;;;;;;;33.55;17.90;;;;;;;;;;7365782;19;20013;-79
2024/01/30 12:59:13;;;;;;;34.10;19.02;;;;;;;;;;7390450;19;20460;-77
2024/01/30 13:01:39;;;;;;;26.65;18.15;;;;;;;;;;7380154;19;20507;-78
2024/01/30 13:04:04;;;;;;;31.10;17.80;;;;;;;;;;7385761;19;19994;-80
2024/01/30 13:06:29;;;;;;;24.13;17.02;;;;;;;;;;7389040;19;19999;-81
2024/01/30 13:08:55;;;;;;;25.95;18.38;;;;;;;;;;7387657;19;20010;-79
2024/01/30 13:11:20;;;;;;;28.90;17.17;;;;;;;;;;7386833;19;20011;-81
2024/01/30 13:13:46;;;;;;;25.15;17.30;;;;;;;;;;7406043;19;20002;-79
2024/01/30 13:16:11;;;;;;;28.23;17.90;;;;;;;;;;7380202;19;20614;-73
2024/01/30 13:18:36;;;;;;;28.63;18.08;;;;;;;;;;7364560;19;20022;-73
2024/01/30 13:21:02;;;;;;;24.25;17.95;;;;;;;;;;7367115;19;20122;-73
2024/01/30 13:23:28;;;;;;;25.05;17.27;;;;;;;;;;7377727;19;20062;-79
2024/01/30 13:25:57;;;;;;;24.10;17.08;;;;;;;;;;7404216;19;20003;-79
2024/01/30 13:28:22;;;;;;;25.20;17.25;;;;;;;;;;7388321;19;20002;-79
2024/01/30 13:30:48;;;;;;;26.58;18.25;;;;;;;;;;7387355;19;20511;-78
2024/01/30 13:33:14;;;;;;;25.40;16.45;;;;;;;;;;7378787;19;20002;-79
2024/01/30 13:35:39;;;;;;;27.77;16.88;;;;;;;;;;7385780;19;19991;-79
2024/01/30 13:38:04;;;;;;;23.52;16.67;;;;;;;;;;7423194;19;20039;-78
2024/01/30 13:40:30;;;;;;;22.35;15.82;;;;;;;;;;7393749;19;20006;-78
2024/01/30 13:42:55;;;;;;;23.83;15.32;;;;;;;;;;7385211;19;20026;-79
2024/01/30 13:45:20;;;;;;;28.88;16.40;;;;;;;;;;7378818;19;19999;-80
2024/01/30 13:47:46;;;;;;;22.55;15.82;;;;;;;;;;7376192;19;20014;-81
2024/01/30 13:50:16;;;;;;;23.00;16.08;;;;;;;;;;7405116;19;20014;-80
2024/01/30 13:52:43;;;;;;;22.38;15.70;;;;;;;;;;7389973;19;20007;-78
2024/01/30 13:55:08;;;;;;;23.65;16.27;;;;;;;;;;7398372;19;20563;-79
2024/01/30 13:57:35;;;;;;;22.63;16.50;;;;;;;;;;7408299;19;20014;-80
2024/01/30 14:00:01;;;;;;;22.38;16.45;;;;;;;;;;7390346;19;20016;-78
2024/01/30 14:02:26;;;;;;;25.35;16.92;;;;;;;;;;7403180;19;20007;-81
2024/01/30 14:04:52;;;;;;;24.25;16.35;;;;;;;;;;7427147;19;20018;-79
2024/01/30 14:07:18;;;;;;;24.33;17.40;;;;;;;;;;7400041;19;20083;-80
2024/01/30 14:09:44;;;;;;;23.75;15.88;;;;;;;;;;7386703;19;20007;-82